createdAt,value
2018-09-21T00:00:41.953Z,9.30
2018-09-21T00:03:11.642Z,9.90
2018-09-21T00:05:40.214Z,9.67
2018-09-21T00:08:08.466Z,9.43
2018-09-21T00:10:36.558Z,9.83
2018-09-21T00:13:04.687Z,9.53
2018-09-21T00:15:32.759Z,9.30
2018-09-21T00:18:00.832Z,9.60
2018-09-21T00:20:28.951Z,9.23
2018-09-21T00:22:57.056Z,10.13
2018-09-21T00:25:25.124Z,9.97
2018-09-21T00:27:53.206Z,9.37
2018-09-21T00:30:21.284Z,8.77
2018-09-21T00:32:49.451Z,8.80
2018-09-21T00:35:17.484Z,9.73
2018-09-21T00:37:45.784Z,9.00
2018-09-21T00:40:15.450Z,8.93
2018-09-21T00:42:43.546Z,8.47
2018-09-21T00:45:11.601Z,8.63
2018-09-21T00:47:39.714Z,8.80
2018-09-21T00:50:07.883Z,9.23
2018-09-21T00:52:35.959Z,8.83
2018-09-21T00:55:04.183Z,9.10
2018-09-21T00:57:32.288Z,8.47
2018-09-21T01:00:00.396Z,8.93
2018-09-21T01:02:28.495Z,9.07
2018-09-21T01:04:56.673Z,9.33
2018-09-21T01:07:24.717Z,9.87
2018-09-21T01:09:52.803Z,9.80
2018-09-21T01:12:20.928Z,9.47
2018-09-21T01:14:48.989Z,9.07
2018-09-21T01:17:17.063Z,9.13
2018-09-21T01:19:45.182Z,9.07
2018-09-21T01:22:13.253Z,8.70
2018-09-21T01:24:41.373Z,8.53
2018-09-21T01:27:13.877Z,8.90
2018-09-21T01:29:42.158Z,9.23
2018-09-21T01:32:10.370Z,9.70
2018-09-21T01:34:38.411Z,8.87
2018-09-21T01:37:06.553Z,9.57
2018-09-21T01:39:34.671Z,8.70
2018-09-21T01:42:02.794Z,9.07
2018-09-21T01:44:30.879Z,9.27
2018-09-21T01:46:58.959Z,9.53
2018-09-21T01:49:27.059Z,9.53
2018-09-21T01:51:55.114Z,9.23
2018-09-21T01:54:23.243Z,9.00
2018-09-21T01:56:51.353Z,9.30
2018-09-21T01:59:19.505Z,9.50
2018-09-21T02:01:47.542Z,9.20
2018-09-21T02:04:15.626Z,9.23
2018-09-21T02:06:43.703Z,9.27
2018-09-21T02:09:11.794Z,8.67
2018-09-21T02:11:40.841Z,8.53
2018-09-21T02:14:09.000Z,9.40
2018-09-21T02:16:37.757Z,9.10
2018-09-21T02:19:05.867Z,9.33
2018-09-21T02:21:33.915Z,9.07
2018-09-21T02:24:01.968Z,9.50
2018-09-21T02:26:30.030Z,9.43
2018-09-21T02:28:58.140Z,9.20
2018-09-21T02:31:26.222Z,8.83
2018-09-21T02:33:54.271Z,8.43
2018-09-21T02:36:22.328Z,9.70
2018-09-21T02:38:50.391Z,8.87
2018-09-21T02:41:18.542Z,8.43
2018-09-21T02:43:46.555Z,8.87
2018-09-21T02:46:14.703Z,8.33
2018-09-21T02:48:42.875Z,8.97
2018-09-21T02:51:10.951Z,9.20
2018-09-21T02:53:39.056Z,8.63
2018-09-21T02:56:07.147Z,8.97
2018-09-21T02:58:35.191Z,8.83
2018-09-21T03:01:03.247Z,8.90
2018-09-21T03:03:31.311Z,8.93
2018-09-21T03:05:59.409Z,8.97
2018-09-21T03:08:27.552Z,8.57
2018-09-21T03:10:55.600Z,8.00
2018-09-21T03:13:23.732Z,8.90
2018-09-21T03:15:51.843Z,8.60
2018-09-21T03:18:19.965Z,8.53
2018-09-21T03:20:48.073Z,8.90
2018-09-21T03:23:16.149Z,9.03
2018-09-21T03:25:44.224Z,8.63
2018-09-21T03:28:13.193Z,8.57
2018-09-21T03:30:41.279Z,9.27
2018-09-21T03:33:09.324Z,8.20
2018-09-21T03:35:37.401Z,9.03
2018-09-21T03:38:05.468Z,9.07
2018-09-21T03:40:33.555Z,8.37
2018-09-21T03:43:01.704Z,9.13
2018-09-21T03:45:29.789Z,9.07
2018-09-21T03:47:57.867Z,9.10
2018-09-21T03:50:25.981Z,8.60
2018-09-21T03:52:54.288Z,9.23
2018-09-21T03:55:22.322Z,9.03
2018-09-21T03:57:50.394Z,8.80
2018-09-21T04:00:18.487Z,9.73
2018-09-21T04:02:46.558Z,8.77
2018-09-21T04:05:14.657Z,9.70
2018-09-21T04:07:42.833Z,9.27
2018-09-21T04:10:10.916Z,9.43
2018-09-21T04:12:39.049Z,9.63
2018-09-21T04:15:07.755Z,9.13
2018-09-21T04:17:35.815Z,9.47
2018-09-21T04:20:03.939Z,9.43
2018-09-21T04:22:32.436Z,8.90
2018-09-21T04:25:00.629Z,9.30
2018-09-21T04:27:28.851Z,9.77
2018-09-21T04:29:56.965Z,9.37
2018-09-21T04:32:25.086Z,9.50
2018-09-21T04:34:53.685Z,9.80
2018-09-21T04:37:21.920Z,10.27
2018-09-21T04:39:50.361Z,10.17
2018-09-21T04:42:18.531Z,9.93
2018-09-21T04:44:46.749Z,9.23
2018-09-21T04:47:14.866Z,9.20
2018-09-21T04:49:43.421Z,10.30
2018-09-21T04:52:11.467Z,9.83
2018-09-21T04:54:39.917Z,10.10
2018-09-21T04:57:07.983Z,9.83
2018-09-21T04:59:36.146Z,9.87
2018-09-21T05:02:04.234Z,9.57
2018-09-21T05:04:32.374Z,10.00
2018-09-21T05:07:00.482Z,9.60
2018-09-21T05:09:28.597Z,9.30
2018-09-21T05:11:56.748Z,9.37
2018-09-21T05:14:24.884Z,8.83
2018-09-21T05:16:52.994Z,9.33
2018-09-21T05:19:21.039Z,9.07
2018-09-21T05:21:49.137Z,9.37
2018-09-21T05:24:17.225Z,9.30
2018-09-21T05:26:45.368Z,9.00
2018-09-21T05:29:13.431Z,8.83
2018-09-21T05:31:41.518Z,9.70
2018-09-21T05:34:16.402Z,9.70
2018-09-21T05:36:44.672Z,8.83
2018-09-21T05:39:14.024Z,8.73
2018-09-21T05:41:42.312Z,8.10
2018-09-21T05:44:11.193Z,8.67
2018-09-21T05:46:40.012Z,8.17
2018-09-21T05:49:08.194Z,8.87
2018-09-21T05:51:36.432Z,7.80
2018-09-21T05:54:04.523Z,7.80
2018-09-21T05:56:33.405Z,7.63
2018-09-21T05:59:01.442Z,8.73
2018-09-21T06:01:29.565Z,8.23
2018-09-21T06:03:57.662Z,8.33
2018-09-21T06:06:26.518Z,8.37
2018-09-21T06:08:54.690Z,8.43
2018-09-21T06:11:22.771Z,8.30
2018-09-21T06:13:50.951Z,7.77
2018-09-21T06:16:19.037Z,8.47
2018-09-21T06:18:47.098Z,7.80
2018-09-21T06:21:15.575Z,8.23
2018-09-21T06:23:43.832Z,7.93
2018-09-21T06:26:12.183Z,7.90
2018-09-21T06:28:40.545Z,7.80
2018-09-21T06:31:08.894Z,8.90
2018-09-21T06:33:37.228Z,8.30
2018-09-21T06:36:05.824Z,8.37
2018-09-21T06:38:34.762Z,8.10
2018-09-21T06:41:03.349Z,7.37
2018-09-21T06:43:31.656Z,7.67
2018-09-21T06:45:59.998Z,8.57
2018-09-21T06:48:28.352Z,7.27
2018-09-21T06:50:56.716Z,7.33
2018-09-21T06:53:25.119Z,7.40
2018-09-21T06:55:53.456Z,8.77
2018-09-21T06:58:21.792Z,7.60
2018-09-21T07:00:50.180Z,7.40
2018-09-21T07:03:18.486Z,7.70
2018-09-21T07:05:46.868Z,7.00
2018-09-21T07:08:15.247Z,6.60
2018-09-21T07:10:43.628Z,7.27
2018-09-21T07:13:12.007Z,7.20
2018-09-21T07:15:40.350Z,7.73
2018-09-21T07:18:08.983Z,6.77
2018-09-21T07:20:37.335Z,7.17
2018-09-21T07:23:05.682Z,7.70
2018-09-21T07:25:34.028Z,6.80
2018-09-21T07:28:02.382Z,7.77
2018-09-21T07:30:30.750Z,7.77
2018-09-21T07:32:59.071Z,7.33
2018-09-21T07:35:27.528Z,7.47
2018-09-21T07:37:56.190Z,7.03
2018-09-21T07:40:25.124Z,7.30
2018-09-21T07:42:53.532Z,7.13
2018-09-21T07:45:21.993Z,8.93
2018-09-21T07:47:50.302Z,7.50
2018-09-21T07:50:19.378Z,7.63
2018-09-21T07:52:47.709Z,8.00
2018-09-21T07:55:15.991Z,6.80
2018-09-21T07:57:51.673Z,6.97
2018-09-21T08:00:20.032Z,8.13
2018-09-21T08:02:49.247Z,6.97
2018-09-21T08:05:21.779Z,6.10
2018-09-21T08:07:50.138Z,6.60
2018-09-21T08:10:18.431Z,6.83
2018-09-21T08:12:46.840Z,7.27
2018-09-21T08:15:15.968Z,6.70
2018-09-21T08:17:44.397Z,6.37
2018-09-21T08:20:12.840Z,6.80
2018-09-21T08:22:41.279Z,6.10
2018-09-21T08:25:09.631Z,6.40
2018-09-21T08:27:38.071Z,5.60
2018-09-21T08:30:06.443Z,6.00
2018-09-21T08:32:34.714Z,5.50
2018-09-21T08:35:03.113Z,5.57
2018-09-21T08:37:31.451Z,5.70
2018-09-21T08:39:59.931Z,5.50
2018-09-21T08:42:28.831Z,5.03
2018-09-21T08:44:57.200Z,5.47
2018-09-21T08:47:25.860Z,5.40
2018-09-21T08:49:54.386Z,5.63
2018-09-21T08:52:22.710Z,5.70
2018-09-21T08:54:51.302Z,5.53
2018-09-21T08:57:19.700Z,4.70
2018-09-21T08:59:48.101Z,5.73
2018-09-21T09:02:17.189Z,4.70
2018-09-21T09:04:45.556Z,5.17
2018-09-21T09:07:13.933Z,5.13
2018-09-21T09:09:42.226Z,5.07
2018-09-21T09:12:10.581Z,4.90
2018-09-21T09:14:38.917Z,5.17
2018-09-21T09:17:07.341Z,5.50
2018-09-21T09:19:35.794Z,4.97
2018-09-21T09:22:04.203Z,5.57
2018-09-21T09:24:32.541Z,4.57
2018-09-21T09:27:00.908Z,4.80
2018-09-21T09:29:29.286Z,6.07
2018-09-21T09:31:57.669Z,5.70
2018-09-21T09:34:26.020Z,5.57
2018-09-21T09:36:54.410Z,5.60
2018-09-21T09:39:22.750Z,5.50
2018-09-21T09:41:51.150Z,4.97
2018-09-21T09:44:19.470Z,4.80
2018-09-21T09:46:47.872Z,4.77
2018-09-21T09:49:16.276Z,4.73
2018-09-21T09:51:44.648Z,5.90
2018-09-21T09:54:13.121Z,4.90
2018-09-21T09:56:41.455Z,5.10
2018-09-21T09:59:09.851Z,4.90
2018-09-21T10:01:38.204Z,5.03
2018-09-21T10:04:06.558Z,4.97
2018-09-21T10:06:35.039Z,4.47
2018-09-21T10:09:05.200Z,4.53
2018-09-21T10:11:33.611Z,4.70
2018-09-21T10:14:01.950Z,4.90
2018-09-21T10:16:30.280Z,4.50
2018-09-21T10:18:58.606Z,4.63
2018-09-21T10:21:26.955Z,4.50
2018-09-21T10:23:55.328Z,5.00
2018-09-21T10:26:23.665Z,4.50
2018-09-21T10:28:52.289Z,4.43
2018-09-21T10:31:20.435Z,4.80
2018-09-21T10:33:48.898Z,5.27
2018-09-21T10:36:17.125Z,4.60
2018-09-21T10:38:45.478Z,4.23
2018-09-21T10:41:13.877Z,4.47
2018-09-21T10:43:42.263Z,4.47
2018-09-21T10:46:10.632Z,4.27
2018-09-21T10:48:38.988Z,4.60
2018-09-21T10:51:07.383Z,4.90
2018-09-21T10:53:36.080Z,4.77
2018-09-21T10:56:04.391Z,4.30
2018-09-21T10:58:32.698Z,4.80
2018-09-21T11:01:01.056Z,4.10
2018-09-21T11:03:29.384Z,4.37
2018-09-21T11:05:57.764Z,4.67
2018-09-21T11:08:26.119Z,4.67
2018-09-21T11:10:54.485Z,4.93
2018-09-21T11:13:22.803Z,4.27
2018-09-21T11:15:51.454Z,4.47
2018-09-21T11:18:19.804Z,4.70
2018-09-21T11:20:48.270Z,5.43
2018-09-21T11:23:16.590Z,4.50
2018-09-21T11:25:44.926Z,4.80
2018-09-21T11:28:13.264Z,4.80
2018-09-21T11:30:41.587Z,4.57
2018-09-21T11:33:10.031Z,4.90
2018-09-21T11:35:38.415Z,5.23
2018-09-21T11:38:06.746Z,4.43
2018-09-21T11:40:35.309Z,4.43
2018-09-21T11:43:03.732Z,5.13
2018-09-21T11:45:32.150Z,4.83
2018-09-21T11:48:00.601Z,4.70
2018-09-21T11:50:29.024Z,4.40
2018-09-21T11:52:58.022Z,4.97
2018-09-21T11:55:26.398Z,5.43
2018-09-21T11:57:54.739Z,5.33
2018-09-21T12:00:23.015Z,4.87
2018-09-21T12:02:51.411Z,4.60
2018-09-21T12:05:19.740Z,5.10
2018-09-21T12:07:48.140Z,5.30
2018-09-21T12:10:16.565Z,5.47
2018-09-21T12:12:44.928Z,5.80
2018-09-21T12:15:13.198Z,5.10
2018-09-21T12:17:41.555Z,4.50
2018-09-21T12:20:09.878Z,5.10
2018-09-21T12:22:39.267Z,5.00
2018-09-21T12:25:07.559Z,4.63
2018-09-21T12:27:35.943Z,5.50
2018-09-21T12:30:04.430Z,5.30
2018-09-21T12:32:32.769Z,5.30
2018-09-21T12:35:01.091Z,6.67
2018-09-21T12:37:29.443Z,5.37
2018-09-21T12:39:57.809Z,6.00
2018-09-21T12:42:26.200Z,5.63
2018-09-21T12:44:54.658Z,5.60
2018-09-21T12:47:23.174Z,5.00
2018-09-21T12:52:26.205Z,5.40
2018-09-21T12:54:54.560Z,5.30
2018-09-21T12:57:22.880Z,6.27
2018-09-21T12:59:51.241Z,6.00
2018-09-21T13:02:19.741Z,5.40
2018-09-21T13:04:48.113Z,5.60
2018-09-21T13:07:16.407Z,5.40
2018-09-21T13:09:45.708Z,6.13
2018-09-21T13:12:14.062Z,5.07
2018-09-21T13:14:42.368Z,5.53
2018-09-21T13:17:10.679Z,5.60
2018-09-21T13:19:39.396Z,5.87
2018-09-21T13:22:07.770Z,5.33
2018-09-21T13:24:36.139Z,5.47
2018-09-21T13:27:04.435Z,5.20
2018-09-21T13:29:32.771Z,5.90
2018-09-21T13:32:01.103Z,5.20
2018-09-21T13:34:29.388Z,4.83
2018-09-21T13:36:57.779Z,5.47
2018-09-21T13:39:26.136Z,5.40
2018-09-21T13:41:54.540Z,5.63
2018-09-21T13:44:22.880Z,5.87
2018-09-21T13:46:51.275Z,5.93
2018-09-21T13:49:19.558Z,5.43
2018-09-21T13:51:47.964Z,5.00
2018-09-21T13:54:16.333Z,5.40
2018-09-21T13:56:44.683Z,5.57
2018-09-21T13:59:13.018Z,4.83
2018-09-21T14:01:41.394Z,5.00
2018-09-21T14:04:09.767Z,4.67
2018-09-21T14:06:38.112Z,4.87
2018-09-21T14:09:07.764Z,4.67
2018-09-21T14:11:36.134Z,4.80
2018-09-21T14:14:04.501Z,5.30
2018-09-21T14:16:32.888Z,5.23
2018-09-21T14:19:01.282Z,4.90
2018-09-21T14:21:29.771Z,4.93
2018-09-21T14:23:58.115Z,5.00
2018-09-21T14:26:26.481Z,4.83
2018-09-21T14:28:54.814Z,5.20
2018-09-21T14:31:23.163Z,5.10
2018-09-21T14:33:51.492Z,5.67
2018-09-21T14:36:19.989Z,5.13
2018-09-21T14:38:48.339Z,5.60
2018-09-21T14:41:17.091Z,5.37
2018-09-21T14:43:45.464Z,5.30
2018-09-21T14:46:13.844Z,5.20
2018-09-21T14:48:42.172Z,9.40
2018-09-21T14:51:10.577Z,10.53
2018-09-21T14:53:38.563Z,8.40
2018-09-21T14:56:06.704Z,7.13
2018-09-21T14:58:34.867Z,6.27
2018-09-21T15:01:02.992Z,4.13
2018-09-21T15:03:31.169Z,5.20
2018-09-21T15:05:59.212Z,4.20
2018-09-21T15:08:27.370Z,3.27
2018-09-21T15:10:55.573Z,3.07
2018-09-21T15:13:23.678Z,2.70
2018-09-21T15:15:51.787Z,2.67
2018-09-21T15:18:19.898Z,2.30
2018-09-21T15:20:47.990Z,2.07
2018-09-21T15:23:16.015Z,1.93
2018-09-21T15:25:44.139Z,1.73
2018-09-21T15:28:12.616Z,2.00
2018-09-21T15:30:40.931Z,2.27
2018-09-21T15:33:09.509Z,1.60
2018-09-21T15:35:37.836Z,2.03
2018-09-21T15:38:06.245Z,1.90
2018-09-21T15:40:34.581Z,2.27
2018-09-21T15:43:03.066Z,1.83
2018-09-21T15:45:31.481Z,2.00
2018-09-21T15:47:59.878Z,1.90
2018-09-21T15:50:28.213Z,1.83
2018-09-21T15:52:56.575Z,1.80
2018-09-21T15:55:24.967Z,2.00
2018-09-21T15:57:53.395Z,1.80
2018-09-21T16:00:21.754Z,1.70
2018-09-21T16:02:50.139Z,1.83
2018-09-21T16:05:18.526Z,1.93
2018-09-21T16:07:46.901Z,2.17
2018-09-21T16:10:15.250Z,2.10
2018-09-21T16:12:43.617Z,1.93
2018-09-21T16:15:11.970Z,1.87
2018-09-21T16:17:40.297Z,2.13
2018-09-21T16:20:08.717Z,2.40
2018-09-21T16:22:37.112Z,2.37
2018-09-21T16:25:05.484Z,1.80
2018-09-21T16:27:34.230Z,2.33
2018-09-21T16:30:02.288Z,2.33
2018-09-21T16:32:30.340Z,2.83
2018-09-21T16:34:58.516Z,2.90
2018-09-21T16:37:26.617Z,2.60
2018-09-21T16:39:54.799Z,2.40
2018-09-21T16:42:22.895Z,2.43
2018-09-21T16:44:51.195Z,2.40
2018-09-21T16:47:19.199Z,2.40
2018-09-21T16:49:47.275Z,2.40
2018-09-21T16:52:15.376Z,2.33
2018-09-21T16:54:43.584Z,2.10
2018-09-21T16:57:11.668Z,2.30
2018-09-21T16:59:39.769Z,2.60
2018-09-21T17:02:08.018Z,2.50
2018-09-21T17:04:36.360Z,2.53
2018-09-21T17:07:04.750Z,2.70
2018-09-21T17:09:33.079Z,2.80
2018-09-21T17:12:01.368Z,2.40
2018-09-21T17:14:29.764Z,3.63
2018-09-21T17:16:58.116Z,3.00
2018-09-21T17:19:26.432Z,2.87
2018-09-21T17:21:54.890Z,3.50
2018-09-21T17:24:23.302Z,3.17
2018-09-21T17:26:51.666Z,3.50
2018-09-21T17:29:26.812Z,3.10
2018-09-21T17:31:56.113Z,3.90
2018-09-21T17:34:24.464Z,3.53
2018-09-21T17:36:52.927Z,2.77
2018-09-21T17:39:21.352Z,2.77
2018-09-21T17:41:49.640Z,2.60
2018-09-21T17:44:17.955Z,3.20
2018-09-21T17:46:46.272Z,2.80
2018-09-21T17:49:14.786Z,2.93
2018-09-21T17:51:43.571Z,3.43
2018-09-21T17:54:11.947Z,3.33
2018-09-21T17:59:18.400Z,3.20
2018-09-21T18:01:46.709Z,3.37
2018-09-21T18:04:15.147Z,3.37
2018-09-21T18:06:43.446Z,3.40
2018-09-21T18:09:11.993Z,4.17
2018-09-21T18:11:40.353Z,3.97
2018-09-21T18:14:08.863Z,5.70
2018-09-21T18:16:37.333Z,6.27
2018-09-21T18:21:40.375Z,4.13
2018-09-21T18:24:09.339Z,5.00
2018-09-21T18:26:37.665Z,4.13
2018-09-21T18:29:06.231Z,5.47
2018-09-21T18:31:34.696Z,4.20
2018-09-21T18:34:03.035Z,4.30
2018-09-21T18:36:31.394Z,4.40
2018-09-21T18:38:59.751Z,3.90
2018-09-21T18:41:28.148Z,4.50
2018-09-21T18:43:56.691Z,4.13
2018-09-21T18:46:25.035Z,4.43
2018-09-21T18:48:53.367Z,5.00
2018-09-21T18:51:21.660Z,4.20
2018-09-21T18:53:50.050Z,5.27
2018-09-21T18:56:18.389Z,4.47
2018-09-21T18:58:47.343Z,4.30
2018-09-21T19:01:15.720Z,5.30
2018-09-21T19:03:44.043Z,5.30
2018-09-21T19:06:12.432Z,4.57
2018-09-21T19:08:40.718Z,4.00
2018-09-21T19:11:09.195Z,4.53
2018-09-21T19:13:37.519Z,4.03
2018-09-21T19:16:05.918Z,5.00
2018-09-21T19:18:34.199Z,4.73
2018-09-21T19:21:02.584Z,5.17
2018-09-21T19:23:30.955Z,5.10
2018-09-21T19:25:59.263Z,5.17
2018-09-21T19:28:27.668Z,5.20
2018-09-21T19:30:56.023Z,4.70
2018-09-21T19:33:24.411Z,5.20
2018-09-21T19:35:52.881Z,4.40
2018-09-21T19:38:21.190Z,4.90
2018-09-21T19:40:49.579Z,5.30
2018-09-21T19:43:17.963Z,4.70
2018-09-21T19:45:46.393Z,5.10
2018-09-21T19:48:14.768Z,4.50
2018-09-21T19:50:43.144Z,4.33
2018-09-21T19:53:12.209Z,4.30
2018-09-21T19:55:40.475Z,4.30
2018-09-21T19:58:09.645Z,4.63
2018-09-21T20:00:37.959Z,4.63
2018-09-21T20:03:06.566Z,4.50
2018-09-21T20:05:34.859Z,3.17
2018-09-21T20:08:03.190Z,4.20
2018-09-21T20:10:31.640Z,4.00
2018-09-21T20:12:59.990Z,4.00
2018-09-21T20:15:28.600Z,3.70
2018-09-21T20:17:56.926Z,3.93
2018-09-21T20:20:25.842Z,3.43
2018-09-21T20:22:54.291Z,3.57
2018-09-21T20:25:22.959Z,3.63
2018-09-21T20:27:51.556Z,3.47
2018-09-21T20:30:25.355Z,3.70
2018-09-21T20:32:59.344Z,3.73
2018-09-21T20:35:27.813Z,3.93
2018-09-21T20:37:56.134Z,4.17
2018-09-21T20:40:24.556Z,7.90
2018-09-21T20:42:53.155Z,5.13
2018-09-21T20:45:21.784Z,3.30
2018-09-21T20:47:50.164Z,4.03
2018-09-21T20:50:18.545Z,3.60
2018-09-21T20:52:47.185Z,4.57
2018-09-21T20:55:15.686Z,4.03
2018-09-21T20:57:44.234Z,3.47
2018-09-21T21:00:12.612Z,3.17
2018-09-21T21:02:40.929Z,3.33
2018-09-21T21:05:09.448Z,3.30
2018-09-21T21:07:37.848Z,3.47
2018-09-21T21:10:06.512Z,3.17
2018-09-21T21:12:35.003Z,3.10
2018-09-21T21:15:03.465Z,2.93
2018-09-21T21:17:32.408Z,3.43
2018-09-21T21:20:00.784Z,4.03
2018-09-21T21:22:29.237Z,4.83
2018-09-21T21:24:57.655Z,3.60
2018-09-21T21:27:26.083Z,4.00
2018-09-21T21:29:54.654Z,3.70
2018-09-21T21:32:23.117Z,3.60
2018-09-21T21:34:51.502Z,4.00
2018-09-21T21:37:19.859Z,4.23
2018-09-21T21:39:48.449Z,3.20
2018-09-21T21:42:16.742Z,4.40
2018-09-21T21:44:45.139Z,3.43
2018-09-21T21:47:13.472Z,2.47
2018-09-21T21:49:41.894Z,2.57
2018-09-21T21:52:10.263Z,3.70
2018-09-21T21:54:38.619Z,2.37
2018-09-21T21:57:07.039Z,2.80
2018-09-21T21:59:35.443Z,2.70
2018-09-21T22:02:03.816Z,2.63
2018-09-21T22:04:32.121Z,3.70
2018-09-21T22:07:00.464Z,2.10
2018-09-21T22:09:28.788Z,2.50
2018-09-21T22:12:02.566Z,2.30
2018-09-21T22:14:30.862Z,2.33
2018-09-21T22:16:59.199Z,2.30
2018-09-21T22:19:27.532Z,1.97
2018-09-21T22:21:55.885Z,2.07
2018-09-21T22:24:24.316Z,2.30
2018-09-21T22:26:52.674Z,2.23
2018-09-21T22:29:21.297Z,1.90
2018-09-21T22:31:49.636Z,2.13
2018-09-21T22:34:18.197Z,2.40
2018-09-21T22:36:46.588Z,2.57
2018-09-21T22:39:14.974Z,2.87
2018-09-21T22:41:43.479Z,3.17
2018-09-21T22:44:11.824Z,2.30
2018-09-21T22:46:40.202Z,2.30
2018-09-21T22:49:13.705Z,2.60
2018-09-21T22:51:42.060Z,2.33
2018-09-21T22:54:10.392Z,2.63
2018-09-21T22:56:38.736Z,2.33
2018-09-21T22:59:07.068Z,2.90
2018-09-21T23:01:35.675Z,3.47
2018-09-21T23:04:04.004Z,2.30
2018-09-21T23:06:32.287Z,2.27
2018-09-21T23:09:00.599Z,3.03
2018-09-21T23:11:28.983Z,2.60
2018-09-21T23:13:57.312Z,2.00
2018-09-21T23:16:25.694Z,2.73
2018-09-21T23:18:54.119Z,2.37
2018-09-21T23:21:22.458Z,2.57
2018-09-21T23:23:50.750Z,2.30
2018-09-21T23:26:19.043Z,1.93
2018-09-21T23:28:47.522Z,2.20
2018-09-21T23:31:15.926Z,2.43
2018-09-21T23:33:44.349Z,2.20
2018-09-21T23:36:12.698Z,1.90
2018-09-21T23:38:41.080Z,2.20
2018-09-21T23:41:09.443Z,2.20
2018-09-21T23:43:37.775Z,1.80
2018-09-21T23:46:06.579Z,1.90
2018-09-21T23:48:35.110Z,1.97
2018-09-21T23:51:03.521Z,1.90
2018-09-21T23:53:32.492Z,2.17
2018-09-21T23:56:00.773Z,2.17
2018-09-21T23:58:29.111Z,1.67
